createdAt,value
2022-11-10T00:00:42.399Z,94.06
2022-11-10T00:02:14.187Z,95.01
2022-11-10T00:03:48.808Z,94.21
2022-11-10T00:05:20.703Z,94.44
2022-11-10T00:06:52.518Z,94.94
2022-11-10T00:08:24.341Z,94.44
2022-11-10T00:09:56.152Z,94.88
2022-11-10T00:11:27.922Z,94.58
2022-11-10T00:13:00.994Z,94.29
2022-11-10T00:14:51.274Z,94.82
2022-11-10T00:16:41.552Z,94.57
2022-11-10T00:18:13.335Z,94.05
2022-11-10T00:19:46.606Z,94.45
2022-11-10T00:21:18.539Z,94.05
2022-11-10T00:22:50.528Z,94.36
2022-11-10T00:24:22.326Z,95.00
2022-11-10T00:25:54.093Z,94.86
2022-11-10T00:27:25.833Z,93.92
2022-11-10T00:28:57.659Z,95.42
2022-11-10T00:30:29.394Z,94.54
2022-11-10T00:32:01.157Z,94.36
2022-11-10T00:33:34.607Z,94.79
2022-11-10T00:35:08.983Z,93.73
2022-11-10T00:36:40.805Z,93.98
2022-11-10T00:38:12.562Z,94.28
2022-11-10T00:39:44.309Z,95.23
2022-11-10T00:41:16.058Z,94.53
2022-11-10T00:42:47.881Z,94.37
2022-11-10T00:44:19.654Z,94.37
2022-11-10T00:45:51.711Z,94.42
2022-11-10T00:47:23.443Z,95.28
2022-11-10T00:48:55.264Z,95.39
2022-11-10T00:50:28.428Z,95.08
2022-11-10T00:52:00.180Z,95.11
2022-11-10T00:53:31.941Z,95.26
2022-11-10T00:55:04.177Z,95.27
2022-11-10T00:56:35.860Z,95.55
2022-11-10T00:58:07.594Z,95.21
2022-11-10T00:59:39.389Z,95.78
2022-11-10T01:01:11.251Z,95.70
2022-11-10T01:02:43.004Z,95.55
2022-11-10T01:04:14.727Z,95.91
2022-11-10T01:05:47.868Z,96.06
2022-11-10T01:07:19.651Z,96.12
2022-11-10T01:08:51.452Z,95.70
2022-11-10T01:10:23.176Z,95.49
2022-11-10T01:11:54.874Z,96.08
2022-11-10T01:13:27.091Z,95.50
2022-11-10T01:14:58.910Z,96.40
2022-11-10T01:16:31.398Z,96.47
2022-11-10T01:18:03.298Z,97.34
2022-11-10T01:19:35.079Z,97.81
2022-11-10T01:21:08.212Z,96.51
2022-11-10T01:22:40.724Z,96.17
2022-11-10T01:24:12.471Z,96.84
2022-11-10T01:25:44.320Z,97.38
2022-11-10T01:27:16.097Z,96.61
2022-11-10T01:28:47.866Z,96.85
2022-11-10T01:30:19.638Z,96.62
2022-11-10T01:31:51.426Z,96.86
2022-11-10T01:33:23.488Z,97.11
2022-11-10T01:34:57.210Z,95.99
2022-11-10T01:36:30.485Z,97.50
2022-11-10T01:38:02.227Z,97.62
2022-11-10T01:39:34.094Z,97.58
2022-11-10T01:41:09.327Z,97.39
2022-11-10T01:42:45.616Z,96.43
2022-11-10T01:44:18.242Z,96.76
2022-11-10T01:45:51.345Z,97.03
2022-11-10T01:47:23.054Z,96.67
2022-11-10T01:48:55.738Z,96.67
2022-11-10T01:50:28.937Z,96.24
2022-11-10T01:52:03.617Z,96.92
2022-11-10T01:53:36.808Z,95.99
2022-11-10T01:55:08.746Z,97.26
2022-11-10T01:56:42.387Z,97.80
2022-11-10T01:58:15.228Z,98.05
2022-11-10T01:59:47.564Z,97.91
2022-11-10T02:01:19.379Z,97.84
2022-11-10T02:02:54.423Z,97.32
2022-11-10T02:04:26.162Z,96.68
2022-11-10T02:05:57.852Z,95.36
2022-11-10T02:07:31.086Z,95.64
2022-11-10T02:09:02.842Z,96.03
2022-11-10T02:10:34.592Z,95.55
2022-11-10T02:12:06.312Z,94.93
2022-11-10T02:13:38.031Z,94.76
2022-11-10T02:15:12.404Z,94.99
2022-11-10T02:16:44.120Z,95.35
2022-11-10T02:18:15.821Z,95.27
2022-11-10T02:19:47.492Z,94.31
2022-11-10T02:21:20.823Z,95.03
2022-11-10T02:22:52.562Z,94.67
2022-11-10T02:24:24.287Z,95.60
2022-11-10T02:25:56.156Z,94.67
2022-11-10T02:27:27.895Z,94.25
2022-11-10T02:28:59.590Z,93.68
2022-11-10T02:30:31.272Z,94.29
2022-11-10T02:32:03.074Z,94.33
2022-11-10T02:33:34.834Z,93.16
2022-11-10T02:35:07.364Z,93.31
2022-11-10T02:36:40.454Z,93.58
2022-11-10T02:38:12.346Z,93.58
2022-11-10T02:39:44.048Z,93.78
2022-11-10T02:41:15.778Z,94.39
2022-11-10T02:42:47.531Z,93.85
2022-11-10T02:44:19.695Z,94.38
2022-11-10T02:45:51.394Z,94.44
2022-11-10T02:47:23.585Z,93.61
2022-11-10T02:48:55.302Z,93.68
2022-11-10T02:50:27.007Z,94.74
2022-11-10T02:52:00.108Z,93.37
2022-11-10T02:53:31.872Z,93.07
2022-11-10T02:55:04.048Z,93.44
2022-11-10T02:56:35.746Z,93.34
2022-11-10T02:58:07.754Z,93.36
2022-11-10T02:59:39.466Z,93.36
2022-11-10T03:01:11.296Z,92.50
2022-11-10T03:02:43.063Z,93.29
2022-11-10T03:04:14.799Z,93.51
2022-11-10T03:05:46.520Z,93.82
2022-11-10T03:07:19.583Z,94.12
2022-11-10T03:08:51.336Z,93.36
2022-11-10T03:10:23.067Z,93.85
2022-11-10T03:11:54.820Z,94.26
2022-11-10T03:13:35.702Z,94.03
2022-11-10T03:15:18.302Z,93.49
2022-11-10T03:16:50.008Z,93.59
2022-11-10T03:18:21.803Z,93.57
2022-11-10T03:19:53.554Z,93.33
2022-11-10T03:21:25.323Z,93.56
2022-11-10T03:23:02.172Z,93.33
2022-11-10T03:24:33.944Z,93.29
2022-11-10T03:26:05.730Z,91.91
2022-11-10T03:27:37.525Z,93.64
2022-11-10T03:29:09.242Z,93.95
2022-11-10T03:30:41.043Z,93.62
2022-11-10T03:32:12.782Z,93.76
2022-11-10T03:33:44.555Z,93.09
2022-11-10T03:35:16.527Z,92.97
2022-11-10T03:36:48.269Z,94.12
2022-11-10T03:38:21.529Z,94.58
2022-11-10T03:39:53.186Z,94.17
2022-11-10T03:41:24.958Z,93.88
2022-11-10T03:42:56.772Z,94.49
2022-11-10T03:44:28.526Z,94.32
2022-11-10T03:46:00.242Z,93.80
2022-11-10T03:47:31.966Z,93.57
2022-11-10T03:49:03.768Z,93.66
2022-11-10T03:50:35.459Z,93.77
2022-11-10T03:52:07.171Z,94.33
2022-11-10T03:53:40.289Z,95.58
2022-11-10T03:55:12.433Z,96.12
2022-11-10T03:56:44.175Z,96.07
2022-11-10T03:58:15.946Z,96.38
2022-11-10T03:59:47.687Z,94.59
2022-11-10T04:01:19.460Z,93.88
2022-11-10T04:02:51.243Z,93.57
2022-11-10T04:04:41.250Z,93.49
2022-11-10T04:06:31.368Z,93.48
2022-11-10T04:08:21.769Z,94.02
2022-11-10T04:09:54.919Z,95.16
2022-11-10T04:11:45.290Z,95.77
2022-11-10T04:13:35.703Z,94.15
2022-11-10T04:15:27.248Z,93.02
2022-11-10T04:16:59.171Z,93.18
2022-11-10T04:18:31.012Z,93.06
2022-11-10T04:20:03.834Z,92.65
2022-11-10T04:21:35.559Z,92.94
2022-11-10T04:23:26.029Z,92.53
2022-11-10T04:24:59.222Z,93.64
2022-11-10T04:26:30.999Z,93.31
2022-11-10T04:28:02.779Z,93.68
2022-11-10T04:29:34.768Z,93.79
2022-11-10T04:31:06.634Z,93.17
2022-11-10T04:32:38.376Z,92.52
2022-11-10T04:34:11.944Z,94.18
2022-11-10T04:35:43.651Z,93.85
2022-11-10T04:37:15.378Z,93.20
2022-11-10T04:38:47.359Z,93.40
2022-11-10T04:40:20.534Z,92.64
2022-11-10T04:41:52.236Z,93.22
2022-11-10T04:43:24.340Z,92.57
2022-11-10T04:44:56.429Z,92.94
2022-11-10T04:46:30.289Z,92.81
2022-11-10T04:48:02.089Z,93.88
2022-11-10T04:49:33.873Z,92.74
2022-11-10T04:51:06.188Z,92.84
2022-11-10T04:52:37.942Z,92.89
2022-11-10T04:54:11.112Z,93.18
2022-11-10T04:55:44.475Z,92.44
2022-11-10T04:57:16.264Z,92.64
2022-11-10T04:58:48.177Z,92.93
2022-11-10T05:00:20.087Z,92.26
2022-11-10T05:01:51.860Z,92.75
2022-11-10T05:03:24.057Z,92.57
2022-11-10T05:04:56.066Z,91.21
2022-11-10T05:06:27.928Z,93.12
2022-11-10T05:07:59.980Z,92.88
2022-11-10T05:09:31.726Z,93.37
2022-11-10T05:11:04.984Z,92.40
2022-11-10T05:12:36.671Z,92.75
2022-11-10T05:14:08.489Z,93.22
2022-11-10T05:15:42.168Z,94.05
2022-11-10T05:17:13.894Z,93.18
2022-11-10T05:18:45.617Z,92.82
2022-11-10T05:20:17.536Z,93.52
2022-11-10T05:21:49.245Z,93.26
2022-11-10T05:23:39.093Z,91.76
2022-11-10T05:25:11.226Z,93.21
2022-11-10T05:26:44.369Z,92.66
2022-11-10T05:28:17.045Z,92.82
2022-11-10T05:29:48.750Z,92.78
2022-11-10T05:31:20.514Z,92.89
2022-11-10T05:32:52.321Z,93.54
2022-11-10T05:34:24.113Z,94.08
2022-11-10T05:35:55.890Z,93.73
2022-11-10T05:37:27.628Z,93.29
2022-11-10T05:38:59.339Z,93.44
2022-11-10T05:40:31.269Z,95.12
2022-11-10T05:42:04.491Z,94.11
2022-11-10T05:43:36.217Z,93.51
2022-11-10T05:45:09.013Z,93.31
2022-11-10T05:46:40.715Z,93.52
2022-11-10T05:48:12.498Z,93.15
2022-11-10T05:49:44.235Z,94.29
2022-11-10T05:51:16.027Z,93.25
2022-11-10T05:52:50.380Z,93.21
2022-11-10T05:54:22.297Z,93.41
2022-11-10T05:55:53.967Z,93.31
2022-11-10T05:57:27.642Z,93.38
2022-11-10T05:58:59.359Z,92.67
2022-11-10T06:00:31.583Z,92.52
2022-11-10T06:02:10.514Z,92.82
2022-11-10T06:03:45.336Z,92.77
2022-11-10T06:05:17.178Z,93.72
2022-11-10T06:06:48.972Z,93.78
2022-11-10T06:08:21.103Z,93.13
2022-11-10T06:09:52.898Z,93.35
2022-11-10T06:11:24.932Z,94.81
2022-11-10T06:12:58.098Z,94.58
2022-11-10T06:14:29.955Z,93.54
2022-11-10T06:16:01.761Z,96.18
2022-11-10T06:17:33.504Z,96.38
2022-11-10T06:19:05.408Z,96.75
2022-11-10T06:20:37.181Z,94.96
2022-11-10T06:22:08.986Z,95.27
2022-11-10T06:23:40.817Z,95.22
2022-11-10T06:25:12.640Z,96.30
2022-11-10T06:26:44.392Z,95.10
2022-11-10T06:28:17.750Z,94.40
2022-11-10T06:29:49.519Z,94.58
2022-11-10T06:31:21.319Z,95.16
2022-11-10T06:32:53.202Z,95.16
2022-11-10T06:34:25.096Z,94.85
2022-11-10T06:35:56.886Z,96.32
2022-11-10T06:37:28.719Z,94.94
2022-11-10T06:39:00.449Z,95.02
2022-11-10T06:40:32.268Z,95.97
2022-11-10T06:42:04.159Z,95.87
2022-11-10T06:43:37.385Z,96.86
2022-11-10T06:45:09.930Z,94.66
2022-11-10T06:46:42.523Z,94.42
2022-11-10T06:48:14.473Z,94.78
2022-11-10T06:49:50.284Z,94.82
2022-11-10T06:51:24.390Z,94.04
2022-11-10T06:52:56.293Z,94.32
2022-11-10T06:54:28.080Z,96.66
2022-11-10T06:55:59.872Z,96.26
2022-11-10T06:57:37.064Z,95.11
2022-11-10T06:59:12.596Z,94.72
2022-11-10T07:00:44.467Z,94.14
2022-11-10T07:02:16.309Z,93.94
2022-11-10T07:04:12.990Z,96.06
2022-11-10T07:05:40.124Z,96.98
2022-11-10T07:07:12.101Z,96.54
2022-11-10T07:08:43.977Z,96.87
2022-11-10T07:10:15.778Z,97.54
2022-11-10T07:11:47.743Z,96.32
2022-11-10T07:13:19.775Z,97.03
2022-11-10T07:14:53.226Z,95.60
2022-11-10T07:16:24.956Z,95.15
2022-11-10T07:17:56.761Z,94.96
2022-11-10T07:19:28.586Z,94.71
2022-11-10T07:21:02.375Z,97.08
2022-11-10T07:22:34.104Z,97.93
2022-11-10T07:24:06.851Z,98.23
2022-11-10T07:25:39.165Z,97.59
2022-11-10T07:27:10.929Z,97.77
2022-11-10T07:28:42.866Z,98.28
2022-11-10T07:30:16.021Z,97.47
2022-11-10T07:31:47.827Z,96.72
2022-11-10T07:33:19.934Z,96.72
2022-11-10T07:34:51.940Z,96.28
2022-11-10T07:36:23.678Z,97.23
2022-11-10T07:37:55.687Z,95.25
2022-11-10T07:39:27.659Z,95.56
2022-11-10T07:40:59.392Z,96.21
2022-11-10T07:42:31.149Z,95.56
2022-11-10T07:44:02.909Z,95.95
2022-11-10T07:45:36.440Z,97.42
2022-11-10T07:47:08.268Z,97.43
2022-11-10T07:48:40.021Z,96.21
2022-11-10T07:50:11.766Z,96.56
2022-11-10T07:51:43.590Z,98.02
2022-11-10T07:53:15.969Z,97.78
2022-11-10T07:54:47.843Z,97.85
2022-11-10T07:56:19.764Z,98.39
2022-11-10T07:57:51.538Z,97.83
2022-11-10T07:59:23.382Z,98.04
2022-11-10T08:00:56.563Z,98.61
2022-11-10T08:02:28.353Z,98.56
2022-11-10T08:04:00.162Z,98.59
2022-11-10T08:05:32.085Z,97.95
2022-11-10T08:07:03.971Z,98.52
2022-11-10T08:08:35.896Z,98.50
2022-11-10T08:10:08.854Z,98.84
2022-11-10T08:11:40.794Z,98.17
2022-11-10T08:13:13.022Z,96.37
2022-11-10T08:14:44.784Z,96.73
2022-11-10T08:16:18.783Z,98.28
2022-11-10T08:17:50.526Z,98.39
2022-11-10T08:19:22.253Z,98.92
2022-11-10T08:20:54.029Z,97.45
2022-11-10T08:22:25.934Z,97.82
2022-11-10T08:23:57.664Z,98.54
2022-11-10T08:25:34.422Z,98.15
2022-11-10T08:27:06.444Z,98.94
2022-11-10T08:28:38.209Z,99.13
2022-11-10T08:30:10.578Z,98.57
2022-11-10T08:31:43.799Z,98.77
2022-11-10T08:33:16.332Z,98.30
2022-11-10T08:34:48.061Z,98.45
2022-11-10T08:36:19.851Z,98.59
2022-11-10T08:37:51.638Z,97.96
2022-11-10T08:39:38.006Z,98.48
2022-11-10T08:41:10.250Z,97.90
2022-11-10T08:42:42.051Z,98.01
2022-11-10T08:44:19.645Z,98.41
2022-11-10T08:45:54.198Z,98.09
2022-11-10T08:47:27.410Z,98.65
2022-11-10T08:48:59.185Z,99.02
2022-11-10T08:50:31.138Z,98.40
2022-11-10T08:52:03.023Z,98.96
2022-11-10T08:53:37.318Z,98.74
2022-11-10T08:55:09.389Z,98.23
2022-11-10T08:56:41.218Z,97.45
2022-11-10T08:58:13.793Z,97.21
2022-11-10T08:59:45.544Z,96.83
2022-11-10T09:01:17.269Z,97.97
2022-11-10T09:02:50.414Z,98.28
2022-11-10T09:04:22.213Z,98.38
2022-11-10T09:05:58.311Z,97.88
2022-11-10T09:08:00.107Z,98.22
2022-11-10T09:09:31.821Z,98.81
2022-11-10T09:11:06.548Z,99.35
2022-11-10T09:12:38.222Z,98.80
2022-11-10T09:14:10.161Z,98.61
2022-11-10T09:15:41.938Z,97.94
2022-11-10T09:17:13.692Z,98.23
2022-11-10T09:18:47.037Z,98.27
2022-11-10T09:20:18.896Z,98.89
2022-11-10T09:21:52.301Z,98.99
2022-11-10T09:23:25.515Z,98.57
2022-11-10T09:24:57.385Z,98.33
2022-11-10T09:26:29.091Z,98.05
2022-11-10T09:28:02.225Z,97.22
2022-11-10T09:29:34.004Z,97.58
2022-11-10T09:31:14.258Z,96.94
2022-11-10T09:32:48.686Z,97.41
2022-11-10T09:34:22.323Z,98.11
2022-11-10T09:35:57.596Z,98.10
2022-11-10T09:37:29.373Z,98.23
2022-11-10T09:39:01.102Z,97.91
2022-11-10T09:40:39.675Z,97.61
2022-11-10T09:42:24.105Z,96.59
2022-11-10T09:44:01.823Z,96.78
2022-11-10T09:45:38.841Z,96.65
2022-11-10T09:47:15.009Z,96.48
2022-11-10T09:48:51.961Z,96.86
2022-11-10T09:50:29.827Z,96.25
2022-11-10T09:52:01.617Z,96.82
2022-11-10T09:53:36.813Z,96.43
2022-11-10T09:55:18.888Z,95.24
2022-11-10T09:56:50.593Z,95.38
2022-11-10T09:58:22.845Z,96.12
2022-11-10T09:59:54.853Z,96.52
2022-11-10T10:01:30.769Z,95.55
2022-11-10T10:03:03.246Z,94.68
2022-11-10T10:04:51.617Z,95.71
2022-11-10T10:06:30.527Z,94.32
2022-11-10T10:08:11.025Z,94.54
2022-11-10T10:09:46.742Z,94.67
2022-11-10T10:11:26.603Z,94.38
2022-11-10T10:13:04.678Z,95.26
2022-11-10T10:14:45.066Z,95.30
2022-11-10T10:16:18.016Z,93.99
2022-11-10T10:17:54.682Z,95.39
2022-11-10T10:19:29.627Z,95.41
2022-11-10T10:21:11.707Z,95.03
2022-11-10T10:22:52.509Z,94.27
2022-11-10T10:24:27.101Z,95.71
2022-11-10T10:25:58.853Z,94.71
2022-11-10T10:27:30.706Z,94.17
2022-11-10T10:29:07.290Z,95.01
2022-11-10T10:30:40.190Z,93.59
2022-11-10T10:32:12.611Z,93.49
2022-11-10T10:33:44.361Z,93.52
2022-11-10T10:35:16.866Z,92.89
2022-11-10T10:36:48.695Z,92.64
2022-11-10T10:38:23.973Z,93.63
2022-11-10T10:39:55.980Z,93.42
2022-11-10T10:41:28.545Z,93.40
2022-11-10T10:43:00.349Z,91.90
2022-11-10T10:44:32.071Z,92.48
2022-11-10T10:46:06.679Z,91.67
2022-11-10T10:47:38.547Z,92.12
2022-11-10T10:49:28.225Z,92.21
2022-11-10T10:51:00.767Z,92.15
2022-11-10T10:52:32.529Z,91.69
2022-11-10T10:54:05.727Z,91.70
2022-11-10T10:55:44.691Z,91.84
2022-11-10T10:57:21.288Z,91.87
2022-11-10T10:58:54.255Z,91.39
2022-11-10T11:00:26.328Z,89.89
2022-11-10T11:01:58.331Z,90.72
2022-11-10T11:03:37.135Z,90.62
2022-11-10T11:05:10.719Z,90.54
2022-11-10T11:06:42.337Z,90.75
2022-11-10T11:08:17.678Z,88.71
2022-11-10T11:09:50.935Z,89.66
2022-11-10T11:11:24.678Z,89.45
2022-11-10T11:13:04.463Z,89.66
2022-11-10T11:14:36.215Z,88.21
2022-11-10T11:16:09.408Z,89.74
2022-11-10T11:17:41.466Z,90.54
2022-11-10T11:19:13.311Z,91.31
2022-11-10T11:20:48.359Z,89.92
2022-11-10T11:22:37.641Z,90.46
2022-11-10T11:24:15.541Z,89.98
2022-11-10T11:25:48.506Z,87.74
2022-11-10T11:27:22.551Z,89.60
2022-11-10T11:29:03.367Z,90.01
2022-11-10T11:30:42.230Z,90.75
2022-11-10T11:32:33.372Z,88.34
2022-11-10T11:34:07.045Z,87.78
2022-11-10T11:35:44.263Z,86.08
2022-11-10T11:37:19.625Z,87.93
2022-11-10T11:38:54.547Z,86.91
2022-11-10T11:40:28.287Z,86.84
2022-11-10T11:42:06.716Z,87.72
2022-11-10T11:44:06.696Z,88.65
2022-11-10T11:45:45.031Z,89.69
2022-11-10T11:47:23.251Z,89.51
2022-11-10T11:49:01.352Z,90.46
2022-11-10T11:50:36.757Z,89.50
2022-11-10T11:52:10.759Z,90.69
2022-11-10T11:53:52.674Z,90.69
2022-11-10T11:55:31.266Z,90.21
2022-11-10T11:57:13.080Z,90.18
2022-11-10T11:58:45.988Z,90.90
2022-11-10T12:00:18.449Z,88.60
2022-11-10T12:02:02.801Z,89.40
2022-11-10T12:03:39.891Z,88.68
2022-11-10T12:05:16.776Z,87.25
2022-11-10T12:06:54.607Z,89.12
2022-11-10T12:08:32.628Z,88.37
2022-11-10T12:10:10.829Z,87.33
2022-11-10T12:11:51.139Z,89.03
2022-11-10T12:13:37.092Z,87.38
2022-11-10T12:15:16.484Z,87.12
2022-11-10T12:16:53.608Z,83.55
2022-11-10T12:18:30.133Z,87.98
2022-11-10T12:20:05.941Z,84.86
2022-11-10T12:21:50.131Z,87.77
2022-11-10T12:23:24.719Z,86.46
2022-11-10T12:25:13.976Z,84.68
2022-11-10T12:27:01.287Z,85.83
2022-11-10T12:28:36.466Z,85.54
2022-11-10T12:30:11.431Z,85.83
2022-11-10T12:31:44.043Z,83.14
2022-11-10T12:33:20.068Z,84.48
2022-11-10T12:34:56.043Z,83.38
2022-11-10T12:36:28.037Z,84.31
2022-11-10T12:38:01.764Z,79.04
2022-11-10T12:39:40.384Z,82.27
2022-11-10T12:41:14.585Z,81.79
2022-11-10T12:42:47.342Z,83.78
2022-11-10T12:44:22.816Z,83.92
2022-11-10T12:45:57.292Z,84.94
2022-11-10T12:47:31.663Z,84.42
2022-11-10T12:49:08.037Z,84.63
2022-11-10T12:50:45.838Z,85.57
2022-11-10T12:52:19.649Z,85.13
2022-11-10T12:53:51.519Z,83.56
2022-11-10T12:55:30.802Z,83.40
2022-11-10T12:57:04.840Z,84.59
2022-11-10T12:58:38.429Z,81.77
2022-11-10T13:00:28.174Z,80.99
2022-11-10T13:02:02.889Z,82.51
2022-11-10T13:03:36.409Z,83.17
2022-11-10T13:05:20.693Z,80.99
2022-11-10T13:06:53.611Z,80.54
2022-11-10T13:08:28.369Z,78.62
2022-11-10T13:10:17.506Z,81.17
2022-11-10T13:12:19.260Z,79.79
2022-11-10T13:13:58.180Z,80.25
2022-11-10T13:15:55.043Z,77.15
2022-11-10T13:17:53.911Z,78.20
2022-11-10T13:19:48.169Z,79.91
2022-11-10T13:21:19.952Z,80.20
2022-11-10T13:22:51.832Z,77.29
2022-11-10T13:24:24.629Z,77.88
2022-11-10T13:25:58.841Z,76.40
2022-11-10T13:27:57.652Z,75.98
2022-11-10T13:29:37.695Z,75.58
2022-11-10T13:31:39.759Z,76.83
2022-11-10T13:33:36.103Z,77.26
2022-11-10T13:35:45.774Z,76.85
2022-11-10T13:37:46.998Z,75.28
2022-11-10T13:39:26.951Z,74.42
2022-11-10T13:41:22.270Z,73.87
2022-11-10T13:43:24.825Z,77.08
2022-11-10T13:45:13.112Z,75.31
2022-11-10T13:47:06.210Z,73.97
2022-11-10T13:48:47.344Z,73.95
2022-11-10T13:50:31.232Z,73.23
2022-11-10T13:52:08.689Z,73.32
2022-11-10T13:53:44.927Z,75.13
2022-11-10T13:55:25.354Z,75.79
2022-11-10T13:57:12.876Z,74.29
2022-11-10T13:58:44.630Z,73.82
2022-11-10T14:00:24.803Z,74.31
2022-11-10T14:02:32.322Z,73.93
2022-11-10T14:04:05.705Z,71.67
2022-11-10T14:06:09.143Z,71.35
2022-11-10T14:07:44.673Z,73.25
2022-11-10T14:09:23.550Z,72.52
2022-11-10T14:10:57.652Z,74.16
2022-11-10T14:12:30.813Z,72.74
2022-11-10T14:14:04.447Z,76.73
2022-11-10T14:15:39.201Z,77.17
2022-11-10T14:17:15.607Z,76.54
2022-11-10T14:18:58.973Z,76.03
2022-11-10T14:20:34.678Z,76.64
2022-11-10T14:22:14.758Z,77.91
2022-11-10T14:23:47.817Z,74.70
2022-11-10T14:25:20.859Z,75.70
2022-11-10T14:26:53.394Z,75.93
2022-11-10T14:28:26.726Z,76.94
2022-11-10T14:30:19.730Z,78.25
2022-11-10T14:31:51.557Z,76.75
2022-11-10T14:33:23.313Z,79.21
2022-11-10T14:34:56.308Z,79.67
2022-11-10T14:36:29.492Z,79.17
2022-11-10T14:39:34.245Z,79.83
2022-11-10T14:41:06.400Z,79.60
2022-11-10T14:42:38.317Z,78.14
2022-11-10T14:44:22.809Z,79.42
2022-11-10T14:45:54.649Z,79.78
2022-11-10T14:47:27.505Z,79.88
2022-11-10T14:49:00.244Z,80.26
2022-11-10T14:50:32.872Z,80.64
2022-11-10T14:52:06.046Z,79.84
2022-11-10T14:53:39.934Z,79.68
2022-11-10T14:55:15.321Z,80.47
2022-11-10T14:56:47.700Z,80.27
2022-11-10T14:58:23.240Z,80.77
2022-11-10T14:59:55.706Z,80.25
2022-11-10T15:01:29.127Z,80.61
2022-11-10T15:03:01.002Z,81.20
2022-11-10T15:04:33.292Z,81.44
2022-11-10T15:06:07.876Z,80.92
2022-11-10T15:07:41.104Z,81.02
2022-11-10T15:09:13.348Z,81.46
2022-11-10T15:10:47.617Z,81.63
2022-11-10T15:12:21.410Z,81.53
2022-11-10T15:13:53.194Z,81.78
2022-11-10T15:15:25.044Z,81.89
2022-11-10T15:17:00.857Z,82.35
2022-11-10T15:18:32.463Z,82.44
2022-11-10T15:20:04.623Z,82.49
2022-11-10T15:21:36.690Z,81.85
2022-11-10T15:23:19.147Z,82.30
2022-11-10T15:24:50.930Z,81.86
2022-11-10T15:26:23.698Z,81.83
2022-11-10T15:27:57.613Z,82.41
2022-11-10T15:29:29.774Z,81.67
2022-11-10T15:31:02.966Z,81.84
2022-11-10T15:32:35.426Z,82.95
2022-11-10T15:34:28.459Z,82.53
2022-11-10T15:36:14.538Z,82.76
2022-11-10T15:37:57.822Z,82.63
2022-11-10T15:39:31.014Z,82.89
2022-11-10T15:41:13.893Z,84.37
2022-11-10T15:42:56.370Z,82.49
2022-11-10T15:44:28.146Z,84.63
2022-11-10T15:46:00.440Z,83.10
2022-11-10T15:47:35.191Z,83.78
2022-11-10T15:49:09.908Z,83.76
2022-11-10T15:50:42.150Z,83.23
2022-11-10T15:52:18.972Z,83.52
2022-11-10T15:53:50.900Z,84.20
2022-11-10T15:55:24.190Z,84.12
2022-11-10T15:56:56.141Z,85.14
2022-11-10T15:58:28.235Z,85.08
2022-11-10T16:00:00.019Z,85.24
2022-11-10T16:01:31.923Z,85.53
2022-11-10T16:03:04.510Z,85.03
2022-11-10T16:04:36.299Z,83.14
2022-11-10T16:06:11.084Z,84.29
2022-11-10T16:07:42.823Z,87.82
2022-11-10T16:09:14.604Z,87.08
2022-11-10T16:10:48.929Z,85.90
2022-11-10T16:12:21.237Z,84.89
2022-11-10T16:13:53.075Z,84.74
2022-11-10T16:15:24.960Z,84.98
2022-11-10T16:17:14.864Z,85.68
2022-11-10T16:18:46.898Z,87.84
2022-11-10T16:20:18.715Z,86.59
2022-11-10T16:21:50.552Z,85.54
2022-11-10T16:23:22.645Z,86.67
2022-11-10T16:24:54.463Z,86.20
2022-11-10T16:26:27.842Z,85.88
2022-11-10T16:28:08.141Z,85.75
2022-11-10T16:29:40.128Z,87.17
2022-11-10T16:31:11.862Z,86.88
2022-11-10T16:32:43.579Z,87.75
2022-11-10T16:34:15.372Z,87.88
2022-11-10T16:35:49.007Z,85.76
2022-11-10T16:37:20.809Z,85.32
2022-11-10T16:38:53.191Z,85.96
2022-11-10T16:40:25.017Z,85.28
2022-11-10T16:41:58.300Z,85.28
2022-11-10T16:43:30.865Z,85.60
2022-11-10T16:45:02.747Z,88.42
2022-11-10T16:46:34.562Z,86.68
2022-11-10T16:48:06.413Z,88.19
2022-11-10T16:49:43.656Z,89.67
2022-11-10T16:51:16.285Z,88.57
2022-11-10T16:52:48.035Z,88.45
2022-11-10T16:54:19.863Z,88.55
2022-11-10T16:55:51.634Z,88.03
2022-11-10T16:57:25.105Z,87.00
2022-11-10T16:58:56.961Z,85.32
2022-11-10T17:00:28.812Z,86.01
2022-11-10T17:02:00.668Z,86.82
2022-11-10T17:03:33.386Z,86.61
2022-11-10T17:05:05.724Z,86.38
2022-11-10T17:06:40.380Z,86.30
2022-11-10T17:08:19.666Z,85.79
2022-11-10T17:09:51.472Z,86.57
2022-11-10T17:11:24.123Z,87.35
2022-11-10T17:12:57.306Z,86.38
2022-11-10T17:14:35.029Z,86.39
2022-11-10T17:16:07.850Z,87.42
2022-11-10T17:17:39.705Z,86.23
2022-11-10T17:19:16.472Z,87.29
2022-11-10T17:20:49.259Z,86.80
2022-11-10T17:22:23.780Z,85.29
2022-11-10T17:23:55.638Z,85.90
2022-11-10T17:25:29.478Z,86.43
2022-11-10T17:27:01.198Z,85.61
2022-11-10T17:28:34.343Z,86.71
2022-11-10T17:30:09.184Z,85.79
2022-11-10T17:31:41.013Z,87.29
2022-11-10T17:33:12.924Z,87.62
2022-11-10T17:34:44.996Z,87.03
2022-11-10T17:36:18.749Z,85.36
2022-11-10T17:37:52.148Z,87.18
2022-11-10T17:39:23.882Z,86.11
2022-11-10T17:40:55.923Z,86.56
2022-11-10T17:42:29.958Z,86.59
2022-11-10T17:44:03.354Z,90.48
2022-11-10T17:45:35.078Z,89.47
2022-11-10T17:47:06.787Z,88.75
2022-11-10T17:48:38.537Z,88.46
2022-11-10T17:50:10.331Z,86.89
2022-11-10T17:51:42.128Z,87.82
2022-11-10T17:53:17.164Z,87.91
2022-11-10T17:54:49.010Z,89.26
2022-11-10T17:56:20.926Z,89.90
2022-11-10T17:57:54.830Z,90.30
2022-11-10T17:59:28.052Z,89.77
2022-11-10T18:00:59.911Z,88.49
2022-11-10T18:02:31.696Z,87.18
2022-11-10T18:04:05.488Z,88.96
2022-11-10T18:05:37.749Z,87.80
2022-11-10T18:07:09.611Z,88.65
2022-11-10T18:08:44.325Z,87.81
2022-11-10T18:10:16.169Z,87.47
2022-11-10T18:11:47.978Z,87.38
2022-11-10T18:13:23.027Z,87.41
2022-11-10T18:15:03.058Z,88.42
2022-11-10T18:16:37.927Z,88.86
2022-11-10T18:18:11.739Z,87.91
2022-11-10T18:19:43.639Z,87.62
2022-11-10T18:21:15.486Z,88.22
2022-11-10T18:22:47.247Z,89.09
2022-11-10T18:24:19.031Z,89.48
2022-11-10T18:25:50.890Z,89.04
2022-11-10T18:27:22.653Z,88.28
2022-11-10T18:28:54.846Z,87.70
2022-11-10T18:30:32.280Z,88.81
2022-11-10T18:32:09.273Z,87.31
2022-11-10T18:33:41.262Z,87.13
2022-11-10T18:35:13.093Z,87.52
2022-11-10T18:36:45.095Z,88.32
2022-11-10T18:38:16.833Z,87.93
2022-11-10T18:39:48.636Z,88.56
2022-11-10T18:41:39.130Z,88.18
2022-11-10T18:43:10.968Z,88.52
2022-11-10T18:44:42.929Z,87.77
2022-11-10T18:46:16.134Z,87.98
2022-11-10T18:47:47.919Z,87.48
2022-11-10T18:49:20.735Z,88.23
2022-11-10T18:50:52.605Z,87.73
2022-11-10T18:52:24.442Z,87.55
2022-11-10T18:53:56.445Z,88.16
2022-11-10T18:55:28.200Z,87.81
2022-11-10T18:57:00.175Z,89.27
2022-11-10T18:58:31.934Z,89.01
2022-11-10T19:00:04.954Z,90.49
2022-11-10T19:01:38.618Z,91.41
2022-11-10T19:03:10.486Z,92.61
2022-11-10T19:04:42.333Z,90.31
2022-11-10T19:06:14.536Z,88.58
2022-11-10T19:07:46.325Z,89.27
2022-11-10T19:09:19.868Z,89.50
2022-11-10T19:10:52.630Z,89.23
2022-11-10T19:12:26.725Z,89.32
2022-11-10T19:14:03.633Z,88.20
2022-11-10T19:15:39.921Z,87.22
2022-11-10T19:17:13.344Z,87.17
2022-11-10T19:18:45.223Z,86.90
2022-11-10T19:20:17.162Z,87.27
2022-11-10T19:21:49.310Z,87.93
2022-11-10T19:23:21.437Z,87.35
2022-11-10T19:25:07.625Z,87.21
2022-11-10T19:26:40.252Z,87.80
2022-11-10T19:28:12.106Z,87.62
2022-11-10T19:29:43.876Z,87.64
2022-11-10T19:31:17.084Z,87.66
2022-11-10T19:32:50.327Z,86.69
2022-11-10T19:34:22.267Z,87.37
2022-11-10T19:35:53.980Z,87.75
2022-11-10T19:37:27.668Z,87.45
2022-11-10T19:39:02.689Z,87.68
2022-11-10T19:40:34.745Z,86.90
2022-11-10T19:42:06.557Z,88.11
2022-11-10T19:43:38.397Z,88.29
2022-11-10T19:45:10.265Z,87.31
2022-11-10T19:46:42.135Z,87.79
2022-11-10T19:48:15.397Z,88.82
2022-11-10T19:49:47.211Z,88.25
2022-11-10T19:51:19.314Z,89.72
2022-11-10T19:52:51.103Z,88.67
2022-11-10T19:54:22.891Z,89.73
2022-11-10T19:55:59.889Z,88.67
2022-11-10T19:57:33.618Z,89.30
2022-11-10T19:59:05.463Z,88.68
2022-11-10T20:00:37.298Z,87.91
2022-11-10T20:02:12.222Z,88.16
2022-11-10T20:03:46.646Z,88.07
2022-11-10T20:05:18.479Z,88.34
2022-11-10T20:07:10.366Z,89.94
2022-11-10T20:08:44.317Z,88.49
2022-11-10T20:10:16.151Z,87.99
2022-11-10T20:11:47.912Z,88.57
2022-11-10T20:13:19.742Z,87.59
2022-11-10T20:14:51.614Z,87.55
2022-11-10T20:16:23.563Z,88.09
2022-11-10T20:17:55.391Z,88.07